Time;durP1;ratioP1;P1;durP2;ratioP2;P2;SDS_P1;SDS_P2;PMS_P1;PMS_P2;Temp;Humidity;BMP_temperature;BMP_pressure;BME280_temperature;BME280_humidity;BME280_pressure;Samples;Min_cycle;Max_cycle;Signal;HPM_P1;HPM_P2
2021/10/02 00:36:32;;;;;;;20.10;13.70;;;;;;;;;;5038881;28;20151;-85
2021/10/02 00:46:56;;;;;;;22.75;13.20;;;;;;;;;;5038885;28;20024;-85
2021/10/02 00:49:23;;;;;;;19.92;13.30;;;;;;;;;;5038071;28;20021;-85
2021/10/02 00:51:48;;;;;;;20.65;14.18;;;;;;;;;;5027217;28;20018;-85
2021/10/02 00:54:14;;;;;;;21.05;14.82;;;;;;;;;;5036086;28;20044;-84
2021/10/02 00:56:39;;;;;;;24.17;15.05;;;;;;;;;;5039659;28;20042;-85
2021/10/02 00:59:05;;;;;;;21.25;14.88;;;;;;;;;;5039433;28;20071;-85
2021/10/02 01:01:49;;;;;;;22.63;15.15;;;;;;;;;;5036268;28;20037;-84
2021/10/02 01:04:27;;;;;;;19.58;15.32;;;;;;;;;;5038322;28;20076;-85
2021/10/02 01:07:12;;;;;;;22.60;15.75;;;;;;;;;;5038458;28;20018;-85
2021/10/02 01:09:57;;;;;;;20.95;14.93;;;;;;;;;;5028393;28;20022;-84
2021/10/02 01:12:53;;;;;;;22.50;15.45;;;;;;;;;;5018100;28;20036;-85
2021/10/02 01:15:31;;;;;;;24.10;16.20;;;;;;;;;;5020488;28;20026;-85
2021/10/02 01:18:06;;;;;;;24.95;17.05;;;;;;;;;;5019829;28;20028;-86
2021/10/02 01:20:58;;;;;;;26.83;16.88;;;;;;;;;;5017882;28;20133;-84
2021/10/02 01:23:42;;;;;;;22.38;17.30;;;;;;;;;;5018020;28;20032;-85
2021/10/02 01:26:38;;;;;;;24.77;18.50;;;;;;;;;;5000413;28;20599;-84
2021/10/02 01:29:08;;;;;;;20.52;17.10;;;;;;;;;;5018142;28;20022;-86
2021/10/02 01:31:41;;;;;;;22.02;17.00;;;;;;;;;;5018653;28;20034;-86
2021/10/02 01:34:20;;;;;;;22.30;17.85;;;;;;;;;;5000628;28;20061;-85
2021/10/02 01:48:00;;;;;;;28.30;19.63;;;;;;;;;;4997439;28;20404;-85
2021/10/02 01:50:30;;;;;;;26.65;20.10;;;;;;;;;;5038279;28;20022;-84
2021/10/02 01:52:58;;;;;;;28.77;21.08;;;;;;;;;;5038464;28;20059;-85
2021/10/02 01:55:25;;;;;;;25.60;19.65;;;;;;;;;;5038070;28;20448;-85
2021/10/02 01:57:55;;;;;;;25.10;18.67;;;;;;;;;;5038387;28;20026;-85
2021/10/02 02:00:20;;;;;;;27.20;19.42;;;;;;;;;;5039772;28;20025;-85
2021/10/02 02:02:49;;;;;;;24.75;19.70;;;;;;;;;;5043724;28;20112;-85
2021/10/02 02:05:19;;;;;;;22.42;18.00;;;;;;;;;;5009542;28;20389;-85
2021/10/02 02:07:48;;;;;;;20.58;17.23;;;;;;;;;;5019413;28;20021;-86
2021/10/02 02:10:14;;;;;;;22.98;17.98;;;;;;;;;;5018909;28;20022;-85
2021/10/02 02:12:42;;;;;;;22.30;17.38;;;;;;;;;;5005870;28;20466;-84
2021/10/02 02:15:12;;;;;;;20.75;17.63;;;;;;;;;;5004978;28;20032;-85
2021/10/02 02:17:41;;;;;;;22.40;17.67;;;;;;;;;;5022339;28;20026;-85
2021/10/02 02:20:07;;;;;;;24.75;18.52;;;;;;;;;;5023183;28;20040;-85
2021/10/02 02:22:33;;;;;;;21.40;17.38;;;;;;;;;;5041654;28;20029;-85
2021/10/02 02:24:58;;;;;;;24.80;17.85;;;;;;;;;;5024206;28;20025;-85
2021/10/02 02:27:24;;;;;;;22.10;17.38;;;;;;;;;;5042660;28;20032;-84
2021/10/02 02:29:50;;;;;;;20.80;16.30;;;;;;;;;;5024016;28;20439;-85
2021/10/02 02:32:18;;;;;;;19.70;15.85;;;;;;;;;;5040306;28;20029;-86
2021/10/02 02:34:47;;;;;;;21.52;15.48;;;;;;;;;;5041915;28;20061;-85
2021/10/02 02:37:13;;;;;;;18.23;14.98;;;;;;;;;;5024715;28;20057;-85
2021/10/02 02:39:38;;;;;;;21.95;16.35;;;;;;;;;;5041523;28;20054;-84
2021/10/02 02:42:04;;;;;;;17.30;15.40;;;;;;;;;;5041679;28;20163;-85
2021/10/02 02:44:30;;;;;;;23.63;17.20;;;;;;;;;;5041619;28;20036;-86
2021/10/02 02:47:02;;;;;;;20.98;16.60;;;;;;;;;;5023468;28;20044;-85
2021/10/02 02:49:36;;;;;;;19.50;16.58;;;;;;;;;;5041206;28;20018;-84
2021/10/02 02:52:10;;;;;;;19.75;16.05;;;;;;;;;;5040241;28;20096;-85
2021/10/02 02:54:50;;;;;;;17.88;15.95;;;;;;;;;;5040755;28;20060;-85
2021/10/02 02:57:19;;;;;;;21.63;16.40;;;;;;;;;;5040835;28;20028;-86
2021/10/02 02:59:53;;;;;;;20.90;16.73;;;;;;;;;;5042020;28;20049;-85
2021/10/02 03:02:21;;;;;;;21.35;15.88;;;;;;;;;;5039747;28;20064;-85
2021/10/02 03:04:49;;;;;;;24.60;17.00;;;;;;;;;;5044568;28;20032;-86
2021/10/02 03:07:18;;;;;;;21.13;15.95;;;;;;;;;;5041608;28;20021;-85
2021/10/02 03:09:47;;;;;;;22.70;17.67;;;;;;;;;;5042936;28;20017;-84
2021/10/02 03:12:14;;;;;;;27.65;18.90;;;;;;;;;;5041234;28;20029;-85
2021/10/02 03:14:43;;;;;;;22.25;18.58;;;;;;;;;;5045976;28;20037;-85
2021/10/02 03:17:10;;;;;;;25.35;18.92;;;;;;;;;;5045016;28;20420;-85
2021/10/02 03:19:36;;;;;;;22.80;18.23;;;;;;;;;;5041349;28;20022;-85
2021/10/02 03:22:07;;;;;;;22.77;17.75;;;;;;;;;;5041103;28;20096;-86
2021/10/02 03:24:35;;;;;;;21.17;18.08;;;;;;;;;;5040629;28;20025;-85
2021/10/02 03:27:03;;;;;;;23.40;17.83;;;;;;;;;;5025817;28;20465;-85
2021/10/02 03:29:29;;;;;;;24.52;19.63;;;;;;;;;;5041179;28;20087;-85
2021/10/02 03:31:55;;;;;;;24.73;19.63;;;;;;;;;;5031499;28;20041;-85
2021/10/02 03:34:21;;;;;;;24.27;19.10;;;;;;;;;;5003684;28;20026;-86
2021/10/02 03:36:46;;;;;;;27.58;21.17;;;;;;;;;;5021175;28;20033;-85
2021/10/02 03:39:14;;;;;;;25.83;20.67;;;;;;;;;;5018441;28;20045;-85
2021/10/02 03:41:40;;;;;;;31.33;22.67;;;;;;;;;;5020463;28;20029;-86
2021/10/02 03:44:05;;;;;;;28.13;21.73;;;;;;;;;;5020358;28;20032;-86
2021/10/02 03:46:31;;;;;;;27.02;21.02;;;;;;;;;;5003216;28;20025;-85
2021/10/02 03:48:56;;;;;;;29.17;21.75;;;;;;;;;;5020180;28;20089;-85
2021/10/02 03:51:21;;;;;;;30.73;22.83;;;;;;;;;;5021666;28;20025;-85
2021/10/02 03:53:47;;;;;;;29.88;21.23;;;;;;;;;;5021478;28;20034;-85
2021/10/02 03:56:13;;;;;;;26.27;21.60;;;;;;;;;;5021079;28;20052;-85
2021/10/02 03:58:38;;;;;;;29.40;21.05;;;;;;;;;;5020404;28;20102;-85
2021/10/02 04:01:04;;;;;;;25.17;20.80;;;;;;;;;;5020176;28;20029;-85
2021/10/02 04:03:30;;;;;;;30.42;19.30;;;;;;;;;;5019625;28;20026;-85
2021/10/02 04:05:55;;;;;;;27.90;20.17;;;;;;;;;;5002543;28;20393;-85
2021/10/02 04:08:20;;;;;;;23.50;18.90;;;;;;;;;;5021875;28;20072;-86
2021/10/02 04:10:46;;;;;;;28.90;20.25;;;;;;;;;;5019486;28;20168;-85
2021/10/02 04:13:12;;;;;;;23.67;19.48;;;;;;;;;;5032621;28;20025;-85
2021/10/02 04:15:37;;;;;;;25.65;19.88;;;;;;;;;;5040511;28;20021;-85
2021/10/02 04:18:03;;;;;;;25.85;19.48;;;;;;;;;;5039410;28;20396;-85
2021/10/02 04:20:29;;;;;;;29.48;20.80;;;;;;;;;;5039618;28;20040;-84
2021/10/02 04:22:55;;;;;;;27.88;21.58;;;;;;;;;;5041806;28;20102;-86
2021/10/02 04:25:21;;;;;;;35.05;22.70;;;;;;;;;;5040457;28;20033;-84
2021/10/02 04:27:46;;;;;;;33.17;21.25;;;;;;;;;;5039769;28;20049;-85
2021/10/02 04:30:12;;;;;;;29.02;20.98;;;;;;;;;;5037602;28;20033;-85
2021/10/02 04:32:37;;;;;;;31.15;21.85;;;;;;;;;;5028460;28;20029;-85
2021/10/02 04:35:04;;;;;;;27.95;20.38;;;;;;;;;;5038864;28;20026;-85
2021/10/02 04:37:30;;;;;;;25.67;21.25;;;;;;;;;;5025580;28;20038;-85
2021/10/02 04:39:55;;;;;;;27.58;21.10;;;;;;;;;;5019654;28;20084;-85
2021/10/02 04:42:21;;;;;;;25.80;20.38;;;;;;;;;;5019707;28;20104;-85
2021/10/02 04:44:46;;;;;;;27.65;21.02;;;;;;;;;;5020412;28;20030;-86
2021/10/02 04:47:12;;;;;;;29.80;21.95;;;;;;;;;;5021629;28;20080;-85
2021/10/02 04:49:38;;;;;;;29.20;21.48;;;;;;;;;;5036732;28;20045;-85
2021/10/02 04:52:03;;;;;;;33.55;23.90;;;;;;;;;;5038803;28;20040;-84
2021/10/02 04:54:29;;;;;;;35.20;23.33;;;;;;;;;;5042494;28;20021;-85
2021/10/02 04:56:55;;;;;;;31.33;23.55;;;;;;;;;;5039886;28;20067;-85
2021/10/02 04:59:20;;;;;;;38.58;25.77;;;;;;;;;;5037890;28;20030;-85
2021/10/02 05:01:46;;;;;;;42.22;25.75;;;;;;;;;;5038184;28;20025;-85
2021/10/02 05:04:11;;;;;;;37.03;26.38;;;;;;;;;;5038218;28;20029;-85
2021/10/02 05:06:37;;;;;;;40.88;24.63;;;;;;;;;;5038317;28;20085;-86
2021/10/02 05:09:02;;;;;;;38.47;24.30;;;;;;;;;;5039411;28;20029;-85
2021/10/02 05:11:27;;;;;;;35.25;25.60;;;;;;;;;;5039609;28;20033;-85
2021/10/02 05:13:53;;;;;;;33.95;24.13;;;;;;;;;;5038154;28;20065;-86
2021/10/02 05:16:18;;;;;;;33.42;24.88;;;;;;;;;;5039746;28;20025;-85
2021/10/02 05:18:44;;;;;;;30.75;23.50;;;;;;;;;;5039132;28;20032;-86
2021/10/02 05:21:09;;;;;;;33.10;24.20;;;;;;;;;;5039550;28;20022;-86
2021/10/02 05:23:34;;;;;;;35.22;24.40;;;;;;;;;;5045709;28;20025;-86
2021/10/02 05:26:00;;;;;;;32.95;24.50;;;;;;;;;;5042523;28;20451;-85
2021/10/02 05:28:25;;;;;;;36.95;25.52;;;;;;;;;;5038572;28;20033;-85
2021/10/02 05:30:52;;;;;;;32.67;24.90;;;;;;;;;;5037484;28;20034;-85
2021/10/02 05:33:18;;;;;;;35.05;25.05;;;;;;;;;;5038734;28;20033;-86
2021/10/02 05:35:45;;;;;;;35.53;23.67;;;;;;;;;;5039110;28;20092;-85
2021/10/02 05:38:12;;;;;;;31.35;24.33;;;;;;;;;;5038750;28;20025;-86
2021/10/02 05:40:37;;;;;;;31.38;22.83;;;;;;;;;;5038959;28;20033;-85
2021/10/02 05:43:03;;;;;;;37.90;25.52;;;;;;;;;;5038957;28;20026;-85
2021/10/02 05:45:29;;;;;;;35.22;24.40;;;;;;;;;;5038584;28;20040;-85
2021/10/02 05:47:55;;;;;;;37.97;23.88;;;;;;;;;;5020283;28;20033;-85
2021/10/02 05:50:21;;;;;;;37.50;24.25;;;;;;;;;;5025753;28;20026;-86
2021/10/02 05:52:46;;;;;;;33.42;23.90;;;;;;;;;;5041398;28;20148;-84
2021/10/02 05:55:12;;;;;;;35.22;23.17;;;;;;;;;;5029727;28;20033;-86
2021/10/02 05:57:37;;;;;;;33.65;23.00;;;;;;;;;;5023103;28;20026;-85
2021/10/02 06:00:07;;;;;;;33.30;23.10;;;;;;;;;;5021918;28;20092;-85
2021/10/02 06:02:33;;;;;;;33.08;23.67;;;;;;;;;;5021269;28;20037;-86
2021/10/02 06:04:58;;;;;;;34.80;24.75;;;;;;;;;;5016369;28;20026;-85
2021/10/02 06:07:24;;;;;;;33.70;23.98;;;;;;;;;;5016085;28;20064;-84
2021/10/02 06:09:51;;;;;;;36.80;25.45;;;;;;;;;;5016726;28;20104;-84
2021/10/02 06:12:16;;;;;;;36.38;24.45;;;;;;;;;;5018193;28;20049;-84
2021/10/02 06:14:42;;;;;;;36.42;25.33;;;;;;;;;;5017267;28;20022;-85
2021/10/02 06:17:07;;;;;;;42.13;25.45;;;;;;;;;;5016460;28;20045;-84
2021/10/02 06:19:32;;;;;;;35.75;25.98;;;;;;;;;;5016210;28;20050;-84
2021/10/02 06:21:59;;;;;;;39.35;23.90;;;;;;;;;;5015842;28;20033;-84
2021/10/02 06:24:27;;;;;;;37.03;25.45;;;;;;;;;;5015196;28;20112;-84
2021/10/02 06:26:53;;;;;;;35.72;24.77;;;;;;;;;;5015530;28;20022;-84
2021/10/02 06:29:24;;;;;;;36.58;23.98;;;;;;;;;;5015379;28;20113;-84
2021/10/02 06:31:49;;;;;;;38.03;25.75;;;;;;;;;;5015655;28;20382;-84
2021/10/02 06:34:15;;;;;;;41.40;26.65;;;;;;;;;;5015927;28;20033;-84
2021/10/02 06:36:43;;;;;;;39.55;26.65;;;;;;;;;;5019506;28;20488;-85
2021/10/02 06:39:10;;;;;;;37.22;26.30;;;;;;;;;;5048969;28;20021;-85
2021/10/02 06:41:35;;;;;;;38.03;25.88;;;;;;;;;;5036654;28;20033;-84
2021/10/02 06:44:02;;;;;;;40.28;26.30;;;;;;;;;;5035921;28;20029;-84
2021/10/02 06:46:27;;;;;;;40.13;27.83;;;;;;;;;;5017949;28;20048;-84
2021/10/02 06:48:53;;;;;;;41.65;28.50;;;;;;;;;;5036021;28;20469;-84
2021/10/02 06:51:29;;;;;;;43.72;28.70;;;;;;;;;;5036428;28;20095;-84
2021/10/02 06:53:54;;;;;;;46.50;28.95;;;;;;;;;;5022757;28;20034;-83
2021/10/02 06:56:19;;;;;;;39.58;26.88;;;;;;;;;;5015853;28;20057;-84
2021/10/02 06:58:45;;;;;;;37.47;25.92;;;;;;;;;;5028410;28;20033;-84
2021/10/02 07:01:10;;;;;;;37.85;24.40;;;;;;;;;;5035195;28;20036;-84
2021/10/02 07:03:35;;;;;;;36.72;25.73;;;;;;;;;;5035360;28;20079;-84
2021/10/02 07:06:01;;;;;;;33.58;24.33;;;;;;;;;;5035664;28;20406;-84
2021/10/02 07:08:26;;;;;;;32.75;23.20;;;;;;;;;;5035829;28;20036;-84
2021/10/02 07:10:51;;;;;;;36.22;22.85;;;;;;;;;;5020144;28;20029;-84
2021/10/02 07:13:17;;;;;;;30.95;21.23;;;;;;;;;;5014441;28;20056;-84
2021/10/02 07:15:42;;;;;;;36.00;23.23;;;;;;;;;;5016445;28;20033;-84
2021/10/02 07:18:08;;;;;;;37.08;24.13;;;;;;;;;;5016557;28;20037;-84
2021/10/02 07:20:33;;;;;;;31.90;21.10;;;;;;;;;;4998016;28;20084;-84
2021/10/02 07:22:58;;;;;;;28.23;20.90;;;;;;;;;;5016349;28;20069;-84
2021/10/02 07:25:24;;;;;;;28.17;20.60;;;;;;;;;;5016195;28;20054;-84
2021/10/02 07:27:49;;;;;;;27.42;20.33;;;;;;;;;;4998191;28;20053;-85
2021/10/02 07:30:15;;;;;;;27.48;19.92;;;;;;;;;;5024557;28;20378;-84
2021/10/02 07:32:40;;;;;;;24.95;19.77;;;;;;;;;;5015377;28;20033;-84
2021/10/02 07:35:07;;;;;;;30.67;20.83;;;;;;;;;;5024130;28;20022;-84
2021/10/02 07:37:33;;;;;;;25.80;19.25;;;;;;;;;;5019666;28;20044;-84
2021/10/02 07:39:58;;;;;;;26.73;19.35;;;;;;;;;;5031556;28;20017;-84
2021/10/02 07:42:25;;;;;;;28.02;18.00;;;;;;;;;;5040114;28;20036;-84
2021/10/02 07:44:56;;;;;;;25.45;16.92;;;;;;;;;;5035766;28;20439;-84
2021/10/02 07:47:22;;;;;;;21.25;16.10;;;;;;;;;;5036013;28;20025;-84
2021/10/02 07:49:50;;;;;;;19.70;15.65;;;;;;;;;;5034458;28;20125;-84
2021/10/02 07:52:16;;;;;;;20.95;16.15;;;;;;;;;;5034776;28;20061;-84
2021/10/02 07:54:42;;;;;;;22.08;15.43;;;;;;;;;;5018979;28;20040;-84
2021/10/02 07:57:07;;;;;;;19.27;15.57;;;;;;;;;;5036958;28;20079;-84
2021/10/02 07:59:33;;;;;;;20.27;15.35;;;;;;;;;;5019397;28;20431;-84
2021/10/02 08:01:59;;;;;;;22.70;16.48;;;;;;;;;;5038081;28;20039;-84
2021/10/02 08:04:25;;;;;;;27.10;18.27;;;;;;;;;;5017957;28;20033;-85
2021/10/02 08:06:50;;;;;;;19.33;16.02;;;;;;;;;;5029026;28;20029;-85
2021/10/02 08:09:16;;;;;;;24.67;18.67;;;;;;;;;;5027757;28;20030;-85
2021/10/02 08:11:42;;;;;;;23.25;18.02;;;;;;;;;;5034826;28;20078;-85
2021/10/02 08:14:08;;;;;;;25.50;17.25;;;;;;;;;;5015466;28;20187;-84
2021/10/02 08:16:36;;;;;;;20.02;15.88;;;;;;;;;;5014506;28;20033;-84
2021/10/02 08:19:03;;;;;;;23.70;16.45;;;;;;;;;;4996896;28;20018;-85
2021/10/02 08:21:29;;;;;;;23.98;15.85;;;;;;;;;;4998187;28;20033;-85
2021/10/02 08:23:55;;;;;;;21.00;16.58;;;;;;;;;;5030020;28;20078;-85
2021/10/02 08:26:22;;;;;;;21.17;15.98;;;;;;;;;;5030570;28;20036;-84
2021/10/02 08:28:52;;;;;;;24.30;17.02;;;;;;;;;;5014267;28;20057;-85
2021/10/02 08:31:20;;;;;;;22.58;16.80;;;;;;;;;;4997351;28;20409;-84
2021/10/02 08:33:49;;;;;;;25.05;15.93;;;;;;;;;;4996648;28;20547;-83
2021/10/02 08:36:14;;;;;;;20.23;16.60;;;;;;;;;;5014754;28;20554;-83
2021/10/02 08:38:40;;;;;;;20.08;15.95;;;;;;;;;;5014010;28;20026;-83
2021/10/02 08:41:07;;;;;;;21.92;15.63;;;;;;;;;;5014824;28;20045;-83
2021/10/02 08:43:57;;;;;;;28.00;16.20;;;;;;;;;;5014735;28;20521;-83
2021/10/02 08:46:23;;;;;;;21.73;16.02;;;;;;;;;;5013594;28;20119;-85
2021/10/02 08:48:59;;;;;;;24.45;16.27;;;;;;;;;;5013525;28;20029;-85
2021/10/02 08:51:25;;;;;;;22.67;15.07;;;;;;;;;;4996189;28;20026;-85
2021/10/02 08:53:55;;;;;;;19.42;14.68;;;;;;;;;;5014611;28;20076;-85
2021/10/02 08:56:20;;;;;;;21.83;13.57;;;;;;;;;;5032325;28;20025;-86
2021/10/02 08:58:47;;;;;;;16.27;12.43;;;;;;;;;;5033259;28;20032;-86
2021/10/02 09:01:14;;;;;;;19.35;12.57;;;;;;;;;;5015883;28;20120;-86
2021/10/02 09:03:48;;;;;;;19.63;12.93;;;;;;;;;;5015843;28;20392;-85
2021/10/02 09:06:23;;;;;;;19.92;12.30;;;;;;;;;;5033282;28;20067;-85
2021/10/02 09:08:48;;;;;;;18.00;11.93;;;;;;;;;;5013884;28;20014;-85
2021/10/02 09:11:13;;;;;;;13.70;10.60;;;;;;;;;;5013303;28;20092;-86
2021/10/02 09:13:39;;;;;;;17.58;11.57;;;;;;;;;;5020169;28;20033;-87
2021/10/02 09:16:04;;;;;;;22.08;10.00;;;;;;;;;;5015501;28;20052;-85
2021/10/02 09:18:30;;;;;;;27.73;11.30;;;;;;;;;;5015265;28;20125;-86
2021/10/02 09:21:06;;;;;;;12.85;10.18;;;;;;;;;;5031269;28;20037;-85
2021/10/02 09:23:40;;;;;;;20.95;11.50;;;;;;;;;;5014884;28;20027;-85
2021/10/02 09:26:05;;;;;;;20.08;10.93;;;;;;;;;;5023612;28;20026;-85
2021/10/02 09:28:40;;;;;;;15.15;10.55;;;;;;;;;;5013089;28;20109;-85
2021/10/02 09:31:06;;;;;;;16.13;10.50;;;;;;;;;;5013689;28;20061;-84
2021/10/02 09:33:32;;;;;;;15.25;10.45;;;;;;;;;;5012372;28;20041;-84
2021/10/02 09:35:57;;;;;;;19.67;10.82;;;;;;;;;;5013178;28;20105;-84
2021/10/02 09:38:39;;;;;;;14.63;10.77;;;;;;;;;;4995341;28;20095;-84
2021/10/02 09:41:05;;;;;;;15.20;10.80;;;;;;;;;;4995267;28;20034;-84
2021/10/02 09:43:33;;;;;;;16.48;9.98;;;;;;;;;;5011965;28;20436;-85
2021/10/02 09:46:03;;;;;;;14.90;8.90;;;;;;;;;;5013350;28;20026;-85
2021/10/02 09:48:36;;;;;;;14.10;8.00;;;;;;;;;;5012908;28;20036;-85
2021/10/02 09:51:07;;;;;;;13.50;8.70;;;;;;;;;;5013394;28;20512;-85
2021/10/02 09:53:44;;;;;;;13.32;8.68;;;;;;;;;;5017218;28;20036;-84
2021/10/02 09:56:11;;;;;;;14.02;8.48;;;;;;;;;;5022313;28;20036;-84
2021/10/02 09:58:38;;;;;;;11.70;8.60;;;;;;;;;;5015556;28;20034;-85
2021/10/02 10:01:04;;;;;;;10.10;7.72;;;;;;;;;;5012835;28;20061;-84
2021/10/02 10:03:48;;;;;;;11.93;7.88;;;;;;;;;;5011525;28;20037;-84
2021/10/02 10:06:17;;;;;;;14.00;6.85;;;;;;;;;;5030685;28;20025;-84
2021/10/02 10:08:42;;;;;;;11.13;6.88;;;;;;;;;;5032741;28;20024;-84
2021/10/02 10:11:10;;;;;;;14.63;6.68;;;;;;;;;;5033512;28;20424;-84
2021/10/02 10:13:35;;;;;;;12.20;5.95;;;;;;;;;;5015632;28;20036;-83
2021/10/02 10:16:05;;;;;;;9.00;5.68;;;;;;;;;;5032205;28;20120;-83
2021/10/02 10:18:34;;;;;;;6.50;5.15;;;;;;;;;;5033274;28;20059;-84
2021/10/02 10:21:02;;;;;;;11.55;4.97;;;;;;;;;;5031842;28;20114;-84
2021/10/02 10:23:32;;;;;;;8.98;5.07;;;;;;;;;;5020050;28;20112;-84
2021/10/02 10:26:00;;;;;;;7.65;4.05;;;;;;;;;;5032357;28;20500;-84
2021/10/02 10:28:29;;;;;;;7.70;3.55;;;;;;;;;;5013039;28;20025;-83
2021/10/02 10:31:09;;;;;;;5.65;3.70;;;;;;;;;;5012879;28;20061;-83
2021/10/02 10:33:37;;;;;;;8.07;4.00;;;;;;;;;;5023671;28;20582;-83
2021/10/02 10:36:03;;;;;;;7.97;3.58;;;;;;;;;;5019110;28;20029;-84
2021/10/02 10:38:30;;;;;;;9.10;4.65;;;;;;;;;;5037893;28;20488;-83
2021/10/02 10:40:56;;;;;;;25.65;5.68;;;;;;;;;;5018940;28;20021;-84
2021/10/02 10:43:23;;;;;;;5.20;3.45;;;;;;;;;;5019141;28;20040;-84
2021/10/02 10:45:48;;;;;;;6.90;4.25;;;;;;;;;;5027089;28;20030;-83
2021/10/02 10:48:13;;;;;;;6.47;3.83;;;;;;;;;;4998794;28;20052;-84
2021/10/02 10:50:41;;;;;;;6.70;3.50;;;;;;;;;;4997791;28;20080;-84
2021/10/02 10:53:07;;;;;;;6.32;3.72;;;;;;;;;;5020304;28;20049;-82
2021/10/02 10:55:45;;;;;;;6.15;3.13;;;;;;;;;;5025130;28;20030;-86
2021/10/02 10:58:21;;;;;;;3.88;2.47;;;;;;;;;;5022740;28;20032;-86
2021/10/02 11:00:53;;;;;;;4.97;2.20;;;;;;;;;;5023701;28;20026;-86
2021/10/02 11:03:45;;;;;;;5.82;2.55;;;;;;;;;;5019974;28;20038;-87
2021/10/02 11:06:15;;;;;;;5.10;2.28;;;;;;;;;;5019806;28;20061;-85
2021/10/02 11:08:59;;;;;;;4.47;1.90;;;;;;;;;;5019281;28;20504;-86
2021/10/02 11:11:43;;;;;;;26.13;5.28;;;;;;;;;;5019127;28;20037;-86
2021/10/02 11:14:19;;;;;;;4.57;1.98;;;;;;;;;;5019414;28;20067;-86
2021/10/02 11:16:49;;;;;;;5.30;1.98;;;;;;;;;;5001541;28;20033;-86
2021/10/02 11:19:34;;;;;;;4.13;1.90;;;;;;;;;;5027705;28;20028;-86
2021/10/02 11:22:53;;;;;;;3.65;2.00;;;;;;;;;;5038508;28;20057;-84
2021/10/02 11:25:24;;;;;;;4.63;2.25;;;;;;;;;;5039838;28;20017;-85
2021/10/02 11:27:51;;;;;;;4.93;2.08;;;;;;;;;;5038928;28;20040;-84
2021/10/02 11:30:19;;;;;;;9.68;2.20;;;;;;;;;;5039863;28;20053;-86
2021/10/02 11:32:45;;;;;;;5.50;2.00;;;;;;;;;;5040222;28;20060;-85
2021/10/02 11:35:31;;;;;;;5.40;2.85;;;;;;;;;;5040162;28;20033;-86
2021/10/02 11:38:05;;;;;;;4.15;1.65;;;;;;;;;;5042378;28;20064;-86
2021/10/02 11:40:40;;;;;;;3.28;1.55;;;;;;;;;;5039729;28;20026;-85
2021/10/02 11:43:22;;;;;;;8.38;2.35;;;;;;;;;;5039947;28;20025;-85
2021/10/02 11:45:47;;;;;;;2.87;1.83;;;;;;;;;;5040647;28;20033;-86
2021/10/02 11:48:13;;;;;;;3.33;1.73;;;;;;;;;;5043596;28;20017;-85
2021/10/02 11:50:39;;;;;;;6.53;2.35;;;;;;;;;;5015832;28;20022;-86
2021/10/02 11:53:05;;;;;;;4.05;1.73;;;;;;;;;;5024083;28;20029;-85
2021/10/02 11:55:36;;;;;;;2.95;2.20;;;;;;;;;;5024274;28;20057;-85
2021/10/02 11:58:08;;;;;;;4.45;3.65;;;;;;;;;;5024218;28;20022;-85
2021/10/02 12:00:37;;;;;;;5.13;2.95;;;;;;;;;;5023281;28;20132;-86
2021/10/02 12:03:04;;;;;;;8.75;3.00;;;;;;;;;;5023232;28;20117;-86
2021/10/02 12:05:30;;;;;;;5.63;2.60;;;;;;;;;;5004647;28;20045;-85
2021/10/02 12:07:56;;;;;;;6.10;2.80;;;;;;;;;;5024278;28;20117;-86
2021/10/02 12:10:22;;;;;;;3.75;2.75;;;;;;;;;;5042292;28;20021;-86
2021/10/02 12:12:48;;;;;;;4.97;2.47;;;;;;;;;;5025155;28;20025;-86
2021/10/02 12:15:30;;;;;;;3.20;2.60;;;;;;;;;;5045429;28;20163;-85
2021/10/02 12:17:56;;;;;;;4.03;2.80;;;;;;;;;;5042461;28;20026;-85
2021/10/02 12:20:34;;;;;;;5.25;3.08;;;;;;;;;;5032938;28;20053;-85
2021/10/02 12:23:08;;;;;;;7.50;2.72;;;;;;;;;;5021887;28;20038;-85
2021/10/02 12:25:34;;;;;;;4.80;2.75;;;;;;;;;;5022579;28;20496;-86
2021/10/02 12:28:00;;;;;;;3.40;2.08;;;;;;;;;;5021738;28;20025;-86
2021/10/02 12:30:25;;;;;;;2.20;1.90;;;;;;;;;;5019964;28;20029;-85
2021/10/02 12:32:59;;;;;;;1.58;1.48;;;;;;;;;;5022717;28;20433;-85
2021/10/02 12:35:24;;;;;;;3.05;1.70;;;;;;;;;;5020413;28;20057;-84
2021/10/02 12:37:56;;;;;;;11.15;2.13;;;;;;;;;;5020385;28;20037;-87
2021/10/02 12:40:25;;;;;;;1.70;1.58;;;;;;;;;;5021768;28;20022;-86
2021/10/02 12:42:54;;;;;;;2.22;1.88;;;;;;;;;;5017278;28;20095;-84
2021/10/02 12:45:29;;;;;;;3.58;2.00;;;;;;;;;;5022507;28;20051;-84
2021/10/02 12:47:59;;;;;;;2.10;1.90;;;;;;;;;;5016117;28;20021;-84
2021/10/02 12:50:28;;;;;;;3.80;1.88;;;;;;;;;;5034618;28;20032;-83
2021/10/02 12:52:55;;;;;;;2.53;1.70;;;;;;;;;;5017035;28;20029;-84
2021/10/02 12:55:22;;;;;;;3.38;2.10;;;;;;;;;;5028807;28;20022;-84
2021/10/02 12:57:48;;;;;;;2.63;2.22;;;;;;;;;;5024084;28;20021;-84
2021/10/02 13:00:14;;;;;;;3.83;2.00;;;;;;;;;;5033328;28;20020;-83
2021/10/02 13:02:42;;;;;;;2.28;2.08;;;;;;;;;;5013879;28;20220;-84
2021/10/02 13:05:08;;;;;;;4.47;2.13;;;;;;;;;;5014318;28;20032;-87
2021/10/02 13:07:36;;;;;;;2.15;1.98;;;;;;;;;;5031000;28;20053;-86
2021/10/02 13:10:21;;;;;;;3.80;2.00;;;;;;;;;;5015963;28;20378;-85
2021/10/02 13:13:08;;;;;;;4.22;2.30;;;;;;;;;;5014710;28;20142;-86
2021/10/02 13:15:34;;;;;;;3.15;2.50;;;;;;;;;;5021428;28;20034;-85
2021/10/02 13:18:05;;;;;;;2.97;2.00;;;;;;;;;;5014804;28;20034;-87
2021/10/02 13:20:55;;;;;;;2.95;2.20;;;;;;;;;;5010264;28;20029;-86
2021/10/02 13:23:35;;;;;;;3.97;1.80;;;;;;;;;;5025456;28;20072;-87
2021/10/02 13:26:05;;;;;;;3.42;1.50;;;;;;;;;;5033784;28;20025;-86
2021/10/02 13:28:39;;;;;;;3.08;1.50;;;;;;;;;;5015332;28;20029;-86
2021/10/02 13:31:16;;;;;;;1.52;1.10;;;;;;;;;;5015476;28;20029;-87
2021/10/02 13:33:48;;;;;;;5.53;2.58;;;;;;;;;;5016494;28;20103;-87
2021/10/02 13:36:24;;;;;;;8.37;3.90;;;;;;;;;;5016308;28;20079;-87
2021/10/02 13:38:50;;;;;;;2.70;1.80;;;;;;;;;;5033375;28;20427;-88
2021/10/02 13:41:16;;;;;;;4.63;2.65;;;;;;;;;;5015674;28;20519;-87
2021/10/02 13:43:49;;;;;;;3.10;1.38;;;;;;;;;;5016031;28;20132;-88
2021/10/02 13:46:29;;;;;;;1.42;1.17;;;;;;;;;;5033390;28;20029;-88
2021/10/02 13:49:00;;;;;;;1.20;1.13;;;;;;;;;;5035542;28;20033;-87
2021/10/02 13:51:26;;;;;;;2.72;1.33;;;;;;;;;;5013759;28;20041;-87
2021/10/02 13:53:51;;;;;;;4.78;1.70;;;;;;;;;;5023671;28;20021;-87
2021/10/02 13:56:16;;;;;;;2.75;1.42;;;;;;;;;;5041088;28;20006;-86
2021/10/02 13:58:43;;;;;;;2.97;1.63;;;;;;;;;;5039585;28;20034;-87
2021/10/02 14:01:08;;;;;;;7.20;1.75;;;;;;;;;;5008187;28;20052;-88
2021/10/02 14:03:33;;;;;;;1.88;1.20;;;;;;;;;;5014067;28;20025;-88
2021/10/02 14:05:59;;;;;;;2.30;1.30;;;;;;;;;;4995517;28;20120;-87
2021/10/02 14:08:24;;;;;;;4.03;1.60;;;;;;;;;;5015010;28;20474;-88
2021/10/02 14:10:50;;;;;;;2.40;1.48;;;;;;;;;;5017692;28;20083;-87
2021/10/02 14:13:16;;;;;;;3.15;1.42;;;;;;;;;;5017913;28;20071;-87
2021/10/02 14:15:42;;;;;;;1.90;1.50;;;;;;;;;;5016965;28;20033;-88
2021/10/02 14:18:08;;;;;;;3.03;1.42;;;;;;;;;;5024462;28;20052;-88
2021/10/02 14:20:33;;;;;;;4.38;1.48;;;;;;;;;;5037778;28;20017;-88
2021/10/02 14:22:59;;;;;;;4.03;1.40;;;;;;;;;;5041839;28;20036;-87
2021/10/02 14:25:25;;;;;;;2.30;1.70;;;;;;;;;;5038726;28;20037;-87
2021/10/02 14:27:50;;;;;;;3.03;1.67;;;;;;;;;;5036874;28;20388;-88
2021/10/02 14:30:16;;;;;;;2.50;1.70;;;;;;;;;;5044269;28;20044;-86
2021/10/02 14:32:41;;;;;;;2.70;1.50;;;;;;;;;;5038187;28;20037;-88
2021/10/02 14:35:09;;;;;;;4.38;1.33;;;;;;;;;;5019187;28;20374;-88
2021/10/02 14:37:34;;;;;;;3.40;1.58;;;;;;;;;;5036027;28;20032;-87
2021/10/02 14:40:00;;;;;;;2.42;1.40;;;;;;;;;;5036689;28;20017;-87
2021/10/02 14:42:26;;;;;;;1.80;1.33;;;;;;;;;;5035550;28;20025;-88
2021/10/02 14:44:52;;;;;;;5.50;1.50;;;;;;;;;;5019612;28;20143;-88
2021/10/02 14:47:18;;;;;;;3.65;1.88;;;;;;;;;;5036799;28;20116;-88
2021/10/02 14:49:43;;;;;;;3.95;1.65;;;;;;;;;;5034793;28;20022;-88
2021/10/02 14:52:10;;;;;;;3.90;1.50;;;;;;;;;;5036309;28;20087;-88
2021/10/02 14:54:39;;;;;;;2.13;1.25;;;;;;;;;;5018852;28;20043;-88
2021/10/02 14:57:05;;;;;;;3.08;1.33;;;;;;;;;;5036435;28;20075;-87
2021/10/02 14:59:31;;;;;;;2.97;1.60;;;;;;;;;;5018095;28;20021;-87
2021/10/02 15:02:00;;;;;;;2.60;1.30;;;;;;;;;;5025597;28;20030;-87
2021/10/02 15:04:25;;;;;;;6.35;1.80;;;;;;;;;;4998786;28;20026;-87
2021/10/02 15:06:51;;;;;;;1.50;1.40;;;;;;;;;;5001406;28;20159;-88
2021/10/02 15:09:17;;;;;;;4.00;1.63;;;;;;;;;;5018071;28;20116;-87
2021/10/02 15:11:45;;;;;;;7.13;1.45;;;;;;;;;;5036669;28;20040;-87
2021/10/02 15:14:11;;;;;;;3.70;1.30;;;;;;;;;;5019288;28;20401;-87
2021/10/02 15:16:39;;;;;;;2.60;1.30;;;;;;;;;;5036385;28;20025;-88
2021/10/02 15:19:05;;;;;;;4.00;1.38;;;;;;;;;;5032355;28;20056;-88
2021/10/02 15:21:39;;;;;;;8.85;1.52;;;;;;;;;;5014691;28;20037;-88
2021/10/02 15:24:06;;;;;;;3.00;1.40;;;;;;;;;;5015222;28;20030;-87
2021/10/02 15:26:35;;;;;;;2.80;1.35;;;;;;;;;;5016507;28;20116;-88
2021/10/02 15:29:08;;;;;;;3.83;1.83;;;;;;;;;;5015053;28;20117;-87